sensor_id;sensor_type;location;lat;lon;timestamp;pressure;altitude;pressure_sealevel;temperature;humidity
78149;BME280;67396;42.664;23.382;2023-10-13T00:02:07;95468.28;;;13.73;60.11
78149;BME280;67396;42.664;23.382;2023-10-13T00:04:33;95468.69;;;13.68;60.33
78149;BME280;67396;42.664;23.382;2023-10-13T00:07:01;95465.91;;;13.75;59.73
78149;BME280;67396;42.664;23.382;2023-10-13T00:09:28;95460.78;;;13.63;60.54
78149;BME280;67396;42.664;23.382;2023-10-13T00:12:07;95468.25;;;13.59;60.79
78149;BME280;67396;42.664;23.382;2023-10-13T00:14:39;95459.97;;;13.52;60.79
78149;BME280;67396;42.664;23.382;2023-10-13T00:17:07;95456.41;;;13.41;59.89
78149;BME280;67396;42.664;23.382;2023-10-13T00:19:37;95457.94;;;13.24;60.46
78149;BME280;67396;42.664;23.382;2023-10-13T00:22:05;95459.88;;;13.20;60.32
78149;BME280;67396;42.664;23.382;2023-10-13T00:24:41;95450.84;;;13.16;60.23
78149;BME280;67396;42.664;23.382;2023-10-13T00:27:15;95456.75;;;13.22;60.61
78149;BME280;67396;42.664;23.382;2023-10-13T00:30:06;95454.00;;;13.29;60.00
78149;BME280;67396;42.664;23.382;2023-10-13T00:32:52;95448.06;;;13.19;60.30
78149;BME280;67396;42.664;23.382;2023-10-13T00:35:28;95456.69;;;13.11;60.54
78149;BME280;67396;42.664;23.382;2023-10-13T00:37:58;95462.25;;;13.14;60.55
78149;BME280;67396;42.664;23.382;2023-10-13T00:40:44;95461.06;;;13.15;60.67
78149;BME280;67396;42.664;23.382;2023-10-13T00:43:18;95463.41;;;13.13;60.52
78149;BME280;67396;42.664;23.382;2023-10-13T00:45:54;95457.84;;;13.06;61.21
78149;BME280;67396;42.664;23.382;2023-10-13T00:48:22;95466.53;;;13.08;60.87
78149;BME280;67396;42.664;23.382;2023-10-13T00:50:55;95471.25;;;13.11;60.87
78149;BME280;67396;42.664;23.382;2023-10-13T00:53:23;95468.56;;;13.29;60.11
78149;BME280;67396;42.664;23.382;2023-10-13T00:55:50;95466.59;;;13.30;59.72
78149;BME280;67396;42.664;23.382;2023-10-13T00:58:17;95467.81;;;13.32;60.02
78149;BME280;67396;42.664;23.382;2023-10-13T01:00:49;95461.91;;;13.27;60.00
78149;BME280;67396;42.664;23.382;2023-10-13T01:03:21;95464.53;;;13.05;60.71
78149;BME280;67396;42.664;23.382;2023-10-13T01:05:51;95472.44;;;13.07;60.62
78149;BME280;67396;42.664;23.382;2023-10-13T01:08:30;95477.56;;;13.12;60.83
78149;BME280;67396;42.664;23.382;2023-10-13T01:10:59;95466.94;;;13.10;60.43
78149;BME280;67396;42.664;23.382;2023-10-13T01:13:25;95464.22;;;13.14;60.19
78149;BME280;67396;42.664;23.382;2023-10-13T01:15:52;95473.22;;;13.11;60.46
78149;BME280;67396;42.664;23.382;2023-10-13T01:18:18;95466.91;;;13.07;60.56
78149;BME280;67396;42.664;23.382;2023-10-13T01:20:43;95470.88;;;13.09;60.61
78149;BME280;67396;42.664;23.382;2023-10-13T01:23:12;95472.81;;;13.05;60.66
78149;BME280;67396;42.664;23.382;2023-10-13T01:25:45;95471.97;;;12.94;61.03
78149;BME280;67396;42.664;23.382;2023-10-13T01:28:11;95478.63;;;12.86;61.26
78149;BME280;67396;42.664;23.382;2023-10-13T01:30:43;95476.63;;;12.79;61.53
78149;BME280;67396;42.664;23.382;2023-10-13T01:33:15;95475.53;;;13.02;60.57
78149;BME280;67396;42.664;23.382;2023-10-13T01:35:40;95476.69;;;12.90;61.07
78149;BME280;67396;42.664;23.382;2023-10-13T01:38:13;95475.09;;;12.89;61.26
78149;BME280;67396;42.664;23.382;2023-10-13T01:40:39;95472.25;;;12.68;61.87
78149;BME280;67396;42.664;23.382;2023-10-13T01:43:04;95478.91;;;12.63;61.68
78149;BME280;67396;42.664;23.382;2023-10-13T01:45:36;95481.22;;;12.58;61.98
78149;BME280;67396;42.664;23.382;2023-10-13T01:48:04;95488.34;;;12.62;62.05
78149;BME280;67396;42.664;23.382;2023-10-13T01:50:30;95485.22;;;12.64;61.74
78149;BME280;67396;42.664;23.382;2023-10-13T01:52:57;95478.88;;;12.56;62.25
78149;BME280;67396;42.664;23.382;2023-10-13T01:55:40;95481.66;;;12.63;61.79
78149;BME280;67396;42.664;23.382;2023-10-13T01:58:12;95483.97;;;12.58;61.83
78149;BME280;67396;42.664;23.382;2023-10-13T02:00:46;95482.56;;;12.23;63.21
78149;BME280;67396;42.664;23.382;2023-10-13T02:03:15;95477.91;;;12.27;62.55
78149;BME280;67396;42.664;23.382;2023-10-13T02:05:45;95478.31;;;12.33;62.76
78149;BME280;67396;42.664;23.382;2023-10-13T02:08:18;95473.09;;;12.17;63.14
78149;BME280;67396;42.664;23.382;2023-10-13T02:10:57;95467.28;;;12.26;62.96
78149;BME280;67396;42.664;23.382;2023-10-13T02:13:23;95472.34;;;12.20;63.69
78149;BME280;67396;42.664;23.382;2023-10-13T02:15:53;95463.69;;;12.18;63.01
78149;BME280;67396;42.664;23.382;2023-10-13T02:18:21;95462.81;;;12.03;63.66
78149;BME280;67396;42.664;23.382;2023-10-13T02:20:55;95473.00;;;12.03;63.78
78149;BME280;67396;42.664;23.382;2023-10-13T02:23:24;95471.44;;;12.02;63.90
78149;BME280;67396;42.664;23.382;2023-10-13T02:25:54;95465.56;;;12.07;63.51
78149;BME280;67396;42.664;23.382;2023-10-13T02:28:28;95468.31;;;12.07;63.81
78149;BME280;67396;42.664;23.382;2023-10-13T02:30:56;95468.31;;;12.03;63.53
78149;BME280;67396;42.664;23.382;2023-10-13T02:33:23;95468.63;;;11.95;63.90
78149;BME280;67396;42.664;23.382;2023-10-13T02:35:59;95469.19;;;12.18;63.01
78149;BME280;67396;42.664;23.382;2023-10-13T02:38:28;95472.69;;;12.15;63.15
78149;BME280;67396;42.664;23.382;2023-10-13T02:41:16;95466.59;;;11.88;64.18
78149;BME280;67396;42.664;23.382;2023-10-13T02:44:03;95467.09;;;12.01;63.73
78149;BME280;67396;42.664;23.382;2023-10-13T02:46:33;95469.09;;;12.04;63.95
78149;BME280;67396;42.664;23.382;2023-10-13T02:49:04;95474.97;;;12.06;63.71
78149;BME280;67396;42.664;23.382;2023-10-13T02:51:37;95474.44;;;11.86;64.36
78149;BME280;67396;42.664;23.382;2023-10-13T02:54:04;95485.34;;;11.76;64.75
78149;BME280;67396;42.664;23.382;2023-10-13T02:56:36;95499.38;;;11.67;65.12
78149;BME280;67396;42.664;23.382;2023-10-13T02:59:02;95493.84;;;11.63;65.40
78149;BME280;67396;42.664;23.382;2023-10-13T03:01:34;95493.03;;;11.59;65.10
78149;BME280;67396;42.664;23.382;2023-10-13T03:04:01;95485.03;;;11.47;65.27
78149;BME280;67396;42.664;23.382;2023-10-13T03:06:28;95481.00;;;11.34;66.01
78149;BME280;67396;42.664;23.382;2023-10-13T03:09:03;95498.91;;;11.21;66.47
78149;BME280;67396;42.664;23.382;2023-10-13T03:11:45;95484.00;;;11.22;66.40
78149;BME280;67396;42.664;23.382;2023-10-13T03:14:18;95491.56;;;11.32;65.97
78149;BME280;67396;42.664;23.382;2023-10-13T03:17:10;95498.44;;;11.52;65.19
78149;BME280;67396;42.664;23.382;2023-10-13T03:19:45;95489.56;;;11.66;64.81
78149;BME280;67396;42.664;23.382;2023-10-13T03:22:16;95496.47;;;11.86;63.82
78149;BME280;67396;42.664;23.382;2023-10-13T03:24:43;95501.22;;;11.93;63.90
78149;BME280;67396;42.664;23.382;2023-10-13T03:27:16;95501.88;;;11.79;64.28
78149;BME280;67396;42.664;23.382;2023-10-13T03:29:44;95496.09;;;11.54;65.10
78149;BME280;67396;42.664;23.382;2023-10-13T03:32:15;95496.59;;;11.63;64.92
78149;BME280;67396;42.664;23.382;2023-10-13T03:34:42;95497.06;;;11.73;64.03
78149;BME280;67396;42.664;23.382;2023-10-13T03:37:18;95495.84;;;11.66;64.00
78149;BME280;67396;42.664;23.382;2023-10-13T03:39:45;95492.56;;;11.54;64.46
78149;BME280;67396;42.664;23.382;2023-10-13T03:42:11;95491.56;;;11.73;63.82
78149;BME280;67396;42.664;23.382;2023-10-13T03:44:45;95491.72;;;11.83;63.59
78149;BME280;67396;42.664;23.382;2023-10-13T03:47:12;95488.59;;;11.88;63.44
78149;BME280;67396;42.664;23.382;2023-10-13T03:49:45;95479.91;;;11.83;63.70
78149;BME280;67396;42.664;23.382;2023-10-13T03:52:10;95484.13;;;11.73;64.24
78149;BME280;67396;42.664;23.382;2023-10-13T03:54:39;95479.06;;;11.75;64.05
78149;BME280;67396;42.664;23.382;2023-10-13T03:57:07;95471.44;;;11.61;64.53
78149;BME280;67396;42.664;23.382;2023-10-13T03:59:37;95463.91;;;11.18;65.80
78149;BME280;67396;42.664;23.382;2023-10-13T04:02:03;95451.63;;;11.05;66.71
78149;BME280;67396;42.664;23.382;2023-10-13T04:04:37;95455.47;;;10.97;66.78
78149;BME280;67396;42.664;23.382;2023-10-13T04:07:19;95453.00;;;10.88;67.07
78149;BME280;67396;42.664;23.382;2023-10-13T04:10:16;95457.63;;;11.14;66.24
78149;BME280;67396;42.664;23.382;2023-10-13T04:13:21;95460.81;;;11.19;66.03
78149;BME280;67396;42.664;23.382;2023-10-13T04:16:07;95458.16;;;11.30;65.76
78149;BME280;67396;42.664;23.382;2023-10-13T04:18:51;95453.09;;;11.32;65.62
78149;BME280;67396;42.664;23.382;2023-10-13T04:21:23;95457.81;;;11.35;65.44
78149;BME280;67396;42.664;23.382;2023-10-13T04:24:07;95466.66;;;11.18;66.23
78149;BME280;67396;42.664;23.382;2023-10-13T04:27:02;95471.28;;;11.07;66.92
78149;BME280;67396;42.664;23.382;2023-10-13T04:29:38;95470.56;;;11.13;66.24
78149;BME280;67396;42.664;23.382;2023-10-13T04:32:35;95470.88;;;11.08;66.41
78149;BME280;67396;42.664;23.382;2023-10-13T04:35:06;95471.16;;;11.00;67.06
78149;BME280;67396;42.664;23.382;2023-10-13T04:37:38;95475.84;;;10.96;66.83
78149;BME280;67396;42.664;23.382;2023-10-13T04:40:23;95477.50;;;11.04;66.50
78149;BME280;67396;42.664;23.382;2023-10-13T04:42:54;95484.22;;;10.76;67.34
78149;BME280;67396;42.664;23.382;2023-10-13T04:45:23;95486.03;;;10.35;69.01
78149;BME280;67396;42.664;23.382;2023-10-13T04:47:54;95492.59;;;10.04;70.07
78149;BME280;67396;42.664;23.382;2023-10-13T04:50:39;95491.47;;;9.82;71.24
78149;BME280;67396;42.664;23.382;2023-10-13T04:53:14;95493.06;;;9.84;71.52
78149;BME280;67396;42.664;23.382;2023-10-13T04:55:56;95494.47;;;9.74;71.76
78149;BME280;67396;42.664;23.382;2023-10-13T04:58:28;95510.13;;;9.73;72.07
78149;BME280;67396;42.664;23.382;2023-10-13T05:01:31;95512.09;;;9.99;71.75
78149;BME280;67396;42.664;23.382;2023-10-13T05:04:16;95523.75;;;9.93;71.33
78149;BME280;67396;42.664;23.382;2023-10-13T05:06:56;95527.09;;;9.82;71.69
78149;BME280;67396;42.664;23.382;2023-10-13T05:09:47;95525.09;;;10.02;71.47
78149;BME280;67396;42.664;23.382;2023-10-13T05:12:31;95514.28;;;10.13;71.03
78149;BME280;67396;42.664;23.382;2023-10-13T05:15:32;95519.50;;;10.74;68.71
78149;BME280;67396;42.664;23.382;2023-10-13T05:18:16;95524.34;;;10.84;68.29
78149;BME280;67396;42.664;23.382;2023-10-13T05:21:00;95539.53;;;11.05;67.87
78149;BME280;67396;42.664;23.382;2023-10-13T05:23:44;95544.09;;;11.27;66.89
78149;BME280;67396;42.664;23.382;2023-10-13T05:26:28;95542.69;;;11.07;67.51
78149;BME280;67396;42.664;23.382;2023-10-13T05:29:12;95546.16;;;11.34;66.73
78149;BME280;67396;42.664;23.382;2023-10-13T05:31:57;95548.47;;;12.02;64.00
78149;BME280;67396;42.664;23.382;2023-10-13T05:34:41;95550.81;;;12.48;63.30
78149;BME280;67396;42.664;23.382;2023-10-13T05:37:25;95551.78;;;12.73;61.92
78149;BME280;67396;42.664;23.382;2023-10-13T05:40:25;95550.00;;;13.12;60.40
78149;BME280;67396;42.664;23.382;2023-10-13T05:43:09;95543.88;;;13.47;59.44
78149;BME280;67396;42.664;23.382;2023-10-13T05:46:00;95555.28;;;13.42;59.79
78149;BME280;67396;42.664;23.382;2023-10-13T05:48:45;95558.91;;;13.68;59.26
78149;BME280;67396;42.664;23.382;2023-10-13T05:51:29;95553.50;;;14.21;58.10
78149;BME280;67396;42.664;23.382;2023-10-13T05:54:04;95552.72;;;14.66;55.71
78149;BME280;67396;42.664;23.382;2023-10-13T05:59:23;95551.00;;;15.22;54.26
78149;BME280;67396;42.664;23.382;2023-10-13T06:02:07;95556.91;;;15.31;53.84
78149;BME280;67396;42.664;23.382;2023-10-13T06:04:51;95555.88;;;14.72;55.56
78149;BME280;67396;42.664;23.382;2023-10-13T06:07:35;95549.91;;;14.88;56.03
78149;BME280;67396;42.664;23.382;2023-10-13T06:10:19;95557.03;;;15.97;55.10
78149;BME280;67396;42.664;23.382;2023-10-13T06:13:05;95572.78;;;16.66;50.80
78149;BME280;67396;42.664;23.382;2023-10-13T06:15:49;95571.53;;;16.74;52.04
78149;BME280;67396;42.664;23.382;2023-10-13T06:18:33;95570.63;;;17.63;49.53
78149;BME280;67396;42.664;23.382;2023-10-13T06:21:17;95567.78;;;18.51;46.10
78149;BME280;67396;42.664;23.382;2023-10-13T06:24:01;95570.72;;;18.67;45.83
78149;BME280;67396;42.664;23.382;2023-10-13T06:26:48;95569.09;;;17.89;46.72
78149;BME280;67396;42.664;23.382;2023-10-13T06:29:32;95583.81;;;17.86;47.64
78149;BME280;67396;42.664;23.382;2023-10-13T06:31:58;95580.22;;;18.16;46.58
78149;BME280;67396;42.664;23.382;2023-10-13T06:34:27;95588.72;;;17.75;47.04
78149;BME280;67396;42.664;23.382;2023-10-13T06:37:25;95586.47;;;18.23;46.35
78149;BME280;67396;42.664;23.382;2023-10-13T06:39:53;95583.38;;;18.45;45.23
78149;BME280;67396;42.664;23.382;2023-10-13T06:42:23;95574.97;;;18.75;44.98
78149;BME280;67396;42.664;23.382;2023-10-13T06:44:55;95585.81;;;19.36;43.59
78149;BME280;67396;42.664;23.382;2023-10-13T06:47:24;95573.59;;;19.30;43.22
78149;BME280;67396;42.664;23.382;2023-10-13T06:49:50;95574.06;;;19.05;43.54
78149;BME280;67396;42.664;23.382;2023-10-13T06:52:23;95573.56;;;19.53;42.66
78149;BME280;67396;42.664;23.382;2023-10-13T06:54:53;95577.34;;;19.43;43.17
78149;BME280;67396;42.664;23.382;2023-10-13T06:57:19;95580.16;;;19.20;44.00
78149;BME280;67396;42.664;23.382;2023-10-13T06:59:48;95573.34;;;19.01;43.78
78149;BME280;67396;42.664;23.382;2023-10-13T07:02:14;95581.03;;;18.93;44.48
78149;BME280;67396;42.664;23.382;2023-10-13T07:04:49;95564.81;;;18.88;44.49
78149;BME280;67396;42.664;23.382;2023-10-13T07:07:28;95551.47;;;19.23;44.21
78149;BME280;67396;42.664;23.382;2023-10-13T07:09:53;95534.69;;;19.26;43.04
78149;BME280;67396;42.664;23.382;2023-10-13T07:12:23;95545.00;;;19.88;42.25
78149;BME280;67396;42.664;23.382;2023-10-13T07:14:52;95549.59;;;19.59;43.43
78149;BME280;67396;42.664;23.382;2023-10-13T07:17:19;95555.09;;;20.18;41.69
78149;BME280;67396;42.664;23.382;2023-10-13T07:19:55;95553.13;;;20.35;40.98
78149;BME280;67396;42.664;23.382;2023-10-13T07:22:31;95548.09;;;20.10;41.76
78149;BME280;67396;42.664;23.382;2023-10-13T07:25:05;95561.44;;;19.83;42.48
78149;BME280;67396;42.664;23.382;2023-10-13T07:27:31;95572.03;;;20.08;41.85
78149;BME280;67396;42.664;23.382;2023-10-13T07:30:00;95560.84;;;19.91;41.58
78149;BME280;67396;42.664;23.382;2023-10-13T07:32:53;95556.13;;;20.44;40.76
78149;BME280;67396;42.664;23.382;2023-10-13T07:35:20;95552.28;;;20.38;40.79
78149;BME280;67396;42.664;23.382;2023-10-13T07:37:50;95545.81;;;20.41;41.31
78149;BME280;67396;42.664;23.382;2023-10-13T07:40:25;95548.53;;;20.77;40.17
78149;BME280;67396;42.664;23.382;2023-10-13T07:42:50;95546.88;;;20.96;39.66
78149;BME280;67396;42.664;23.382;2023-10-13T07:45:16;95548.81;;;20.67;39.85
78149;BME280;67396;42.664;23.382;2023-10-13T07:47:51;95553.50;;;20.37;40.83
78149;BME280;67396;42.664;23.382;2023-10-13T07:50:16;95550.09;;;20.46;40.85
78149;BME280;67396;42.664;23.382;2023-10-13T07:52:51;95542.31;;;20.21;41.32
78149;BME280;67396;42.664;23.382;2023-10-13T07:55:44;95539.56;;;20.37;40.95
78149;BME280;67396;42.664;23.382;2023-10-13T07:58:10;95538.44;;;20.15;41.52
78149;BME280;67396;42.664;23.382;2023-10-13T08:00:39;95545.16;;;20.53;40.94
78149;BME280;67396;42.664;23.382;2023-10-13T08:03:27;95544.03;;;20.83;40.31
78149;BME280;67396;42.664;23.382;2023-10-13T08:06:05;95537.84;;;20.76;39.65
78149;BME280;67396;42.664;23.382;2023-10-13T08:08:32;95536.59;;;20.93;39.66
78149;BME280;67396;42.664;23.382;2023-10-13T08:11:05;95532.28;;;21.21;39.44
78149;BME280;67396;42.664;23.382;2023-10-13T08:13:40;95532.84;;;21.45;38.58
78149;BME280;67396;42.664;23.382;2023-10-13T08:16:12;95545.47;;;21.78;37.88
78149;BME280;67396;42.664;23.382;2023-10-13T08:18:47;95528.34;;;21.76;37.88
78149;BME280;67396;42.664;23.382;2023-10-13T08:21:15;95537.66;;;21.57;38.08
78149;BME280;67396;42.664;23.382;2023-10-13T08:23:49;95537.66;;;20.83;39.74
78149;BME280;67396;42.664;23.382;2023-10-13T08:26:21;95530.25;;;20.24;41.25
78149;BME280;67396;42.664;23.382;2023-10-13T08:28:57;95545.34;;;19.90;42.03
78149;BME280;67396;42.664;23.382;2023-10-13T08:31:43;95546.72;;;19.82;41.72
78149;BME280;67396;42.664;23.382;2023-10-13T08:34:14;95549.88;;;19.65;42.46
78149;BME280;67396;42.664;23.382;2023-10-13T08:36:48;95554.34;;;19.39;42.85
78149;BME280;67396;42.664;23.382;2023-10-13T08:39:13;95546.25;;;19.48;43.42
78149;BME280;67396;42.664;23.382;2023-10-13T08:42:02;95535.22;;;19.41;43.23
78149;BME280;67396;42.664;23.382;2023-10-13T08:44:45;95530.19;;;19.12;43.98
78149;BME280;67396;42.664;23.382;2023-10-13T08:47:18;95531.63;;;19.21;43.83
78149;BME280;67396;42.664;23.382;2023-10-13T08:49:50;95535.56;;;19.23;44.16
78149;BME280;67396;42.664;23.382;2023-10-13T08:52:19;95528.47;;;19.18;44.45
78149;BME280;67396;42.664;23.382;2023-10-13T08:55:05;95540.34;;;19.23;44.07
78149;BME280;67396;42.664;23.382;2023-10-13T08:57:57;95533.16;;;19.25;43.96
78149;BME280;67396;42.664;23.382;2023-10-13T09:00:28;95531.25;;;19.18;44.71
78149;BME280;67396;42.664;23.382;2023-10-13T09:03:14;95530.78;;;19.24;44.30
78149;BME280;67396;42.664;23.382;2023-10-13T09:05:53;95532.00;;;19.23;44.46
78149;BME280;67396;42.664;23.382;2023-10-13T09:08:27;95523.78;;;19.15;45.05
78149;BME280;67396;42.664;23.382;2023-10-13T09:11:22;95527.00;;;19.14;45.26
78149;BME280;67396;42.664;23.382;2023-10-13T09:13:51;95529.25;;;19.19;44.99
78149;BME280;67396;42.664;23.382;2023-10-13T09:16:17;95530.78;;;19.24;44.41
78149;BME280;67396;42.664;23.382;2023-10-13T09:19:02;95526.66;;;19.32;44.49
78149;BME280;67396;42.664;23.382;2023-10-13T09:21:38;95518.66;;;19.34;44.06
78149;BME280;67396;42.664;23.382;2023-10-13T09:24:12;95518.00;;;19.46;44.13
78149;BME280;67396;42.664;23.382;2023-10-13T09:26:59;95517.31;;;19.42;44.01
78149;BME280;67396;42.664;23.382;2023-10-13T09:29:27;95512.81;;;19.48;43.87
78149;BME280;67396;42.664;23.382;2023-10-13T09:32:02;95506.47;;;19.47;44.39
78149;BME280;67396;42.664;23.382;2023-10-13T09:34:28;95503.09;;;19.56;43.92
78149;BME280;67396;42.664;23.382;2023-10-13T09:36:59;95499.84;;;19.61;43.78
78149;BME280;67396;42.664;23.382;2023-10-13T09:39:28;95498.72;;;19.75;43.53
78149;BME280;67396;42.664;23.382;2023-10-13T09:42:05;95497.09;;;19.77;43.44
78149;BME280;67396;42.664;23.382;2023-10-13T09:44:35;95497.09;;;19.77;43.80
78149;BME280;67396;42.664;23.382;2023-10-13T09:47:08;95487.00;;;19.83;43.49
78149;BME280;67396;42.664;23.382;2023-10-13T09:49:44;95483.19;;;19.94;43.33
78149;BME280;67396;42.664;23.382;2023-10-13T09:52:18;95484.06;;;20.07;42.81
78149;BME280;67396;42.664;23.382;2023-10-13T09:54:58;95483.94;;;20.14;42.71
78149;BME280;67396;42.664;23.382;2023-10-13T09:57:33;95484.97;;;20.20;42.44
78149;BME280;67396;42.664;23.382;2023-10-13T10:00:20;95476.44;;;20.27;41.81
78149;BME280;67396;42.664;23.382;2023-10-13T10:03:06;95482.22;;;20.36;42.13
78149;BME280;67396;42.664;23.382;2023-10-13T10:06:01;95478.03;;;20.44;41.60
78149;BME280;67396;42.664;23.382;2023-10-13T10:08:34;95468.81;;;20.47;41.49
78149;BME280;67396;42.664;23.382;2023-10-13T10:11:03;95471.84;;;20.53;41.25
78149;BME280;67396;42.664;23.382;2023-10-13T10:13:42;95466.97;;;20.57;40.91
78149;BME280;67396;42.664;23.382;2023-10-13T10:16:16;95470.00;;;20.62;40.80
78149;BME280;67396;42.664;23.382;2023-10-13T10:18:59;95455.88;;;20.70;40.05
78149;BME280;67396;42.664;23.382;2023-10-13T10:21:36;95459.72;;;20.76;40.22
78149;BME280;67396;42.664;23.382;2023-10-13T10:24:24;95452.44;;;20.78;40.00
78149;BME280;67396;42.664;23.382;2023-10-13T10:26:55;95457.03;;;20.85;40.23
78149;BME280;67396;42.664;23.382;2023-10-13T10:29:22;95454.59;;;20.87;39.62
78149;BME280;67396;42.664;23.382;2023-10-13T10:31:48;95443.44;;;20.87;39.87
78149;BME280;67396;42.664;23.382;2023-10-13T10:34:17;95440.66;;;20.87;39.29
78149;BME280;67396;42.664;23.382;2023-10-13T10:36:57;95446.94;;;20.91;39.35
78149;BME280;67396;42.664;23.382;2023-10-13T10:39:36;95437.66;;;20.94;38.50
78149;BME280;67396;42.664;23.382;2023-10-13T10:42:14;95439.94;;;20.99;38.63
78149;BME280;67396;42.664;23.382;2023-10-13T10:44:54;95435.03;;;21.03;38.23
78149;BME280;67396;42.664;23.382;2023-10-13T10:47:30;95439.09;;;21.15;36.51
78149;BME280;67396;42.664;23.382;2023-10-13T10:50:00;95434.28;;;21.15;36.52
78149;BME280;67396;42.664;23.382;2023-10-13T10:52:33;95434.28;;;21.15;36.72
78149;BME280;67396;42.664;23.382;2023-10-13T10:55:03;95431.94;;;21.14;36.07
78149;BME280;67396;42.664;23.382;2023-10-13T10:57:39;95431.44;;;21.19;36.42
78149;BME280;67396;42.664;23.382;2023-10-13T11:00:18;95427.75;;;21.22;36.14
78149;BME280;67396;42.664;23.382;2023-10-13T11:02:55;95429.56;;;21.28;35.89
78149;BME280;67396;42.664;23.382;2023-10-13T11:05:22;95434.69;;;21.30;36.50
78149;BME280;67396;42.664;23.382;2023-10-13T11:07:50;95430.59;;;21.34;35.48
78149;BME280;67396;42.664;23.382;2023-10-13T11:10:18;95427.56;;;21.42;35.03
78149;BME280;67396;42.664;23.382;2023-10-13T11:12:59;95424.22;;;21.47;35.12
78149;BME280;67396;42.664;23.382;2023-10-13T11:15:42;95410.84;;;21.54;35.37
78149;BME280;67396;42.664;23.382;2023-10-13T11:18:10;95415.97;;;21.56;35.42
78149;BME280;67396;42.664;23.382;2023-10-13T11:20:43;95412.28;;;21.59;34.95
78149;BME280;67396;42.664;23.382;2023-10-13T11:23:13;95413.06;;;21.59;34.63
78149;BME280;67396;42.664;23.382;2023-10-13T11:25:39;95409.06;;;21.60;35.01
78149;BME280;67396;42.664;23.382;2023-10-13T11:28:11;95396.44;;;21.68;34.39
78149;BME280;67396;42.664;23.382;2023-10-13T11:30:46;95389.59;;;21.82;34.11
78149;BME280;67396;42.664;23.382;2023-10-13T11:33:16;95389.59;;;21.82;33.84
78149;BME280;67396;42.664;23.382;2023-10-13T11:35:49;95389.16;;;21.84;33.86
78149;BME280;67396;42.664;23.382;2023-10-13T11:38:22;95394.66;;;21.87;34.00
78149;BME280;67396;42.664;23.382;2023-10-13T11:41:01;95386.25;;;21.87;34.19
78149;BME280;67396;42.664;23.382;2023-10-13T11:43:30;95382.34;;;21.85;34.14
78149;BME280;67396;42.664;23.382;2023-10-13T11:46:00;95379.34;;;21.79;34.19
78149;BME280;67396;42.664;23.382;2023-10-13T11:48:35;95379.69;;;21.81;34.11
78149;BME280;67396;42.664;23.382;2023-10-13T11:51:10;95379.34;;;21.79;33.78
78149;BME280;67396;42.664;23.382;2023-10-13T11:53:57;95377.88;;;21.74;34.09
78149;BME280;67396;42.664;23.382;2023-10-13T11:56:22;95386.16;;;21.78;33.65
78149;BME280;67396;42.664;23.382;2023-10-13T11:58:52;95378.56;;;21.78;33.92
78149;BME280;67396;42.664;23.382;2023-10-13T12:01:18;95376.09;;;21.81;33.98
78149;BME280;67396;42.664;23.382;2023-10-13T12:03:45;95370.81;;;21.83;34.09
78149;BME280;67396;42.664;23.382;2023-10-13T12:06:31;95362.25;;;21.90;34.08
78149;BME280;67396;42.664;23.382;2023-10-13T12:09:07;95354.75;;;21.87;33.74
78149;BME280;67396;42.664;23.382;2023-10-13T12:11:57;95359.09;;;21.88;33.82
78149;BME280;67396;42.664;23.382;2023-10-13T12:14:26;95347.13;;;21.87;33.71
78149;BME280;67396;42.664;23.382;2023-10-13T12:16:57;95352.72;;;21.87;33.74
78149;BME280;67396;42.664;23.382;2023-10-13T12:19:29;95340.63;;;21.90;33.14
78149;BME280;67396;42.664;23.382;2023-10-13T12:21:57;95352.81;;;21.96;33.27
78149;BME280;67396;42.664;23.382;2023-10-13T12:24:29;95357.09;;;22.13;32.63
78149;BME280;67396;42.664;23.382;2023-10-13T12:27:00;95351.59;;;22.23;32.62
78149;BME280;67396;42.664;23.382;2023-10-13T12:29:26;95341.97;;;22.24;32.84
78149;BME280;67396;42.664;23.382;2023-10-13T12:31:58;95353.34;;;22.29;32.54
78149;BME280;67396;42.664;23.382;2023-10-13T12:34:34;95343.53;;;22.25;32.66
78149;BME280;67396;42.664;23.382;2023-10-13T12:37:18;95340.72;;;22.25;32.77
78149;BME280;67396;42.664;23.382;2023-10-13T12:40:03;95338.13;;;22.30;32.61
78149;BME280;67396;42.664;23.382;2023-10-13T12:42:47;95344.50;;;22.31;32.79
78149;BME280;67396;42.664;23.382;2023-10-13T12:45:31;95337.94;;;22.25;33.04
78149;BME280;67396;42.664;23.382;2023-10-13T12:48:15;95337.00;;;22.28;32.92
78149;BME280;67396;42.664;23.382;2023-10-13T12:51:03;95338.25;;;22.27;32.89
78149;BME280;67396;42.664;23.382;2023-10-13T12:54:07;95333.13;;;22.25;32.72
78149;BME280;67396;42.664;23.382;2023-10-13T12:56:46;95339.81;;;22.28;32.84
78149;BME280;67396;42.664;23.382;2023-10-13T12:59:11;95332.97;;;22.29;32.07
78149;BME280;67396;42.664;23.382;2023-10-13T13:01:41;95341.72;;;22.31;32.45
78149;BME280;67396;42.664;23.382;2023-10-13T13:04:09;95329.84;;;22.27;32.65
78149;BME280;67396;42.664;23.382;2023-10-13T13:06:51;95334.81;;;22.23;32.45
78149;BME280;67396;42.664;23.382;2023-10-13T13:09:19;95334.34;;;22.24;32.77
78149;BME280;67396;42.664;23.382;2023-10-13T13:11:54;95332.00;;;22.23;32.88
78149;BME280;67396;42.664;23.382;2023-10-13T13:14:26;95330.00;;;22.23;32.85
78149;BME280;67396;42.664;23.382;2023-10-13T13:16:57;95328.09;;;22.20;32.86
78149;BME280;67396;42.664;23.382;2023-10-13T13:19:31;95326.06;;;22.21;32.51
78149;BME280;67396;42.664;23.382;2023-10-13T13:21:59;95329.53;;;22.25;32.73
78149;BME280;67396;42.664;23.382;2023-10-13T13:24:25;95335.13;;;22.25;32.45
78149;BME280;67396;42.664;23.382;2023-10-13T13:26:55;95335.13;;;22.25;32.55
78149;BME280;67396;42.664;23.382;2023-10-13T13:29:21;95327.06;;;22.27;32.52
78149;BME280;67396;42.664;23.382;2023-10-13T13:31:46;95329.84;;;22.27;32.83
78149;BME280;67396;42.664;23.382;2023-10-13T13:34:12;95325.19;;;22.24;32.85